createdAt,value
2019-01-30T00:00:25.072Z,-4.20
2019-01-30T00:03:28.018Z,-4.20
2019-01-30T00:06:31.719Z,-4.10
2019-01-30T00:09:34.453Z,-4.10
2019-01-30T00:12:37.080Z,-4.00
2019-01-30T00:15:39.746Z,-3.90
2019-01-30T00:18:42.396Z,-3.90
2019-01-30T00:21:45.101Z,-3.80
2019-01-30T00:24:47.759Z,-3.70
2019-01-30T00:27:53.699Z,-3.70
2019-01-30T00:30:56.417Z,-3.60
2019-01-30T00:33:59.110Z,-3.60
2019-01-30T00:37:01.805Z,-3.50
2019-01-30T00:40:05.333Z,-3.50
2019-01-30T00:43:07.990Z,-3.50
2019-01-30T00:46:10.744Z,-3.50
2019-01-30T00:49:13.335Z,-3.40
2019-01-30T00:52:16.065Z,-3.50
2019-01-30T00:55:18.827Z,-3.50
2019-01-30T00:58:21.502Z,-3.50
2019-01-30T01:01:25.056Z,-3.60
2019-01-30T01:04:29.731Z,-3.60
2019-01-30T01:07:32.340Z,-3.50
2019-01-30T01:10:34.887Z,-3.40
2019-01-30T01:13:37.554Z,-3.40
2019-01-30T01:16:40.263Z,-3.40
2019-01-30T01:19:42.810Z,-3.40
2019-01-30T01:22:45.567Z,-3.40
2019-01-30T01:25:48.202Z,-3.30
2019-01-30T01:28:50.947Z,-3.20
2019-01-30T01:31:53.638Z,-3.20
2019-01-30T01:34:56.207Z,-3.20
2019-01-30T01:37:58.957Z,-3.10
2019-01-30T01:41:01.620Z,-3.10
2019-01-30T01:44:05.247Z,-3.10
2019-01-30T01:47:07.895Z,-3.10
2019-01-30T01:50:12.774Z,-3.10
2019-01-30T01:53:15.421Z,-3.00
2019-01-30T01:56:18.016Z,-3.10
2019-01-30T01:59:20.565Z,-3.10
2019-01-30T02:02:23.257Z,-3.00
2019-01-30T02:05:25.954Z,-3.00
2019-01-30T02:08:28.632Z,-3.10
2019-01-30T02:11:31.363Z,-3.10
2019-01-30T02:14:34.042Z,-3.10
2019-01-30T02:17:36.756Z,-3.10
2019-01-30T02:20:39.471Z,-3.10
2019-01-30T02:23:45.021Z,-3.10
2019-01-30T02:26:47.670Z,-3.10
2019-01-30T02:29:50.344Z,-3.00
2019-01-30T02:32:53.204Z,-3.00
2019-01-30T02:35:55.876Z,-3.00
2019-01-30T02:38:58.596Z,-3.00
2019-01-30T02:42:01.241Z,-3.00
2019-01-30T02:45:04.992Z,-2.90
2019-01-30T02:48:07.542Z,-2.90
2019-01-30T02:51:10.239Z,-2.80
2019-01-30T02:54:12.867Z,-2.80
2019-01-30T02:57:15.674Z,-2.80
2019-01-30T03:00:31.477Z,-2.80
2019-01-30T03:03:34.027Z,-2.80
2019-01-30T03:06:36.696Z,-2.80
2019-01-30T03:09:39.357Z,-2.80
2019-01-30T03:12:41.980Z,-2.70
2019-01-30T03:15:44.536Z,-2.70
2019-01-30T03:18:49.398Z,-2.70
2019-01-30T03:21:51.914Z,-2.60
2019-01-30T03:24:54.565Z,-2.60
2019-01-30T03:27:57.256Z,-2.60
2019-01-30T03:31:15.643Z,-2.60
2019-01-30T03:34:04.787Z,-2.60
2019-01-30T03:37:07.439Z,-2.60
2019-01-30T03:40:12.690Z,-2.60
2019-01-30T03:43:15.267Z,-2.70
2019-01-30T03:46:17.870Z,-2.70
2019-01-30T03:49:20.517Z,-2.60
2019-01-30T03:52:23.204Z,-2.60
2019-01-30T03:55:25.842Z,-2.60
2019-01-30T03:58:28.430Z,-2.60
2019-01-30T04:01:31.066Z,-2.70
2019-01-30T04:04:34.769Z,-2.70
2019-01-30T04:07:37.438Z,-2.70
2019-01-30T04:10:40.084Z,-2.70
2019-01-30T04:13:42.748Z,-2.70
2019-01-30T04:16:45.395Z,-2.70
2019-01-30T04:19:48.087Z,-2.70
2019-01-30T04:22:50.718Z,-2.70
2019-01-30T04:25:53.379Z,-2.70
2019-01-30T04:28:55.993Z,-2.70
2019-01-30T04:31:59.517Z,-2.70
2019-01-30T04:35:02.620Z,-2.70
2019-01-30T04:38:05.290Z,-2.80
2019-01-30T04:41:08.018Z,-3.00
2019-01-30T04:44:10.611Z,-3.00
2019-01-30T04:47:14.271Z,-3.00
2019-01-30T04:50:16.909Z,-2.90
2019-01-30T04:53:19.517Z,-2.90
2019-01-30T04:56:22.088Z,-2.90
2019-01-30T04:59:24.756Z,-2.90
2019-01-30T05:02:27.274Z,-2.80
2019-01-30T05:05:29.991Z,-2.80
2019-01-30T05:08:32.627Z,-2.80
2019-01-30T05:11:35.300Z,-2.70
2019-01-30T05:14:37.977Z,-2.60
2019-01-30T05:17:40.722Z,-2.60
2019-01-30T05:20:43.394Z,-2.60
2019-01-30T05:23:46.171Z,-2.60
2019-01-30T05:26:48.734Z,-2.60
2019-01-30T05:29:51.354Z,-2.50
2019-01-30T05:32:53.906Z,-2.50
2019-01-30T05:35:56.555Z,-2.50
2019-01-30T05:38:59.246Z,-2.40
2019-01-30T05:42:02.162Z,-2.50
2019-01-30T05:45:05.629Z,-2.50
2019-01-30T05:48:08.358Z,-2.40
2019-01-30T05:51:11.030Z,-2.50
2019-01-30T05:54:13.720Z,-2.40
2019-01-30T05:57:16.526Z,-2.50
2019-01-30T06:00:35.477Z,-2.50
2019-01-30T06:03:38.227Z,-2.50
2019-01-30T06:06:40.774Z,-2.40
2019-01-30T06:09:44.586Z,-2.40
2019-01-30T06:12:47.147Z,-2.40
2019-01-30T06:15:49.715Z,-2.30
2019-01-30T06:18:52.393Z,-2.40
2019-01-30T06:21:55.055Z,-2.40
2019-01-30T06:24:57.793Z,-2.40
2019-01-30T06:28:00.574Z,-2.40
2019-01-30T06:31:03.312Z,-2.40
2019-01-30T06:34:05.972Z,-2.50
2019-01-30T06:37:08.761Z,-2.50
2019-01-30T06:40:14.539Z,-2.50
2019-01-30T06:43:17.168Z,-2.50
2019-01-30T06:46:19.952Z,-2.50
2019-01-30T06:49:23.782Z,-2.50
2019-01-30T06:52:26.441Z,-2.50
2019-01-30T06:55:29.101Z,-2.50
2019-01-30T06:58:31.727Z,-2.50
2019-01-30T07:01:34.498Z,-2.50
2019-01-30T07:04:37.146Z,-2.50
2019-01-30T07:07:39.736Z,-2.50
2019-01-30T07:10:42.250Z,-2.50
2019-01-30T07:13:44.917Z,-2.40
2019-01-30T07:16:47.464Z,-2.40
2019-01-30T07:19:50.133Z,-2.40
2019-01-30T07:22:52.789Z,-2.40
2019-01-30T07:25:55.385Z,-2.40
2019-01-30T07:28:58.053Z,-2.50
2019-01-30T07:32:00.748Z,-2.40
2019-01-30T07:35:04.998Z,-2.40
2019-01-30T07:38:07.686Z,-2.40
2019-01-30T07:41:10.368Z,-2.40
2019-01-30T07:44:13.010Z,-2.30
2019-01-30T07:47:15.672Z,-2.30
2019-01-30T07:50:18.339Z,-2.30
2019-01-30T07:53:20.986Z,-2.20
2019-01-30T07:56:23.702Z,-2.20
2019-01-30T07:59:26.494Z,-2.10
2019-01-30T08:02:29.172Z,-2.10
2019-01-30T08:05:31.786Z,-2.10
2019-01-30T08:08:34.464Z,-2.00
2019-01-30T08:11:37.131Z,-2.00
2019-01-30T08:14:39.759Z,-1.90
2019-01-30T08:17:42.460Z,-1.80
2019-01-30T08:20:45.186Z,-1.80
2019-01-30T08:23:48.180Z,-1.80
2019-01-30T08:26:50.904Z,-1.70
2019-01-30T08:29:53.597Z,-1.70
2019-01-30T08:33:04.029Z,-1.60
2019-01-30T08:36:02.328Z,-1.50
2019-01-30T08:39:07.032Z,-1.50
2019-01-30T08:42:09.640Z,-1.40
2019-01-30T08:45:17.890Z,-1.30
2019-01-30T08:48:21.006Z,-1.20
2019-01-30T08:51:23.790Z,-1.10
2019-01-30T08:54:26.366Z,-1.00
2019-01-30T08:57:28.989Z,-0.90
2019-01-30T09:00:31.671Z,-0.80
2019-01-30T09:03:34.706Z,-0.70
2019-01-30T09:06:37.402Z,-0.50
2019-01-30T09:09:40.026Z,-0.40
2019-01-30T09:12:42.692Z,-0.30
2019-01-30T09:15:45.341Z,-0.10
2019-01-30T09:18:48.003Z,0.00
2019-01-30T09:21:50.675Z,0.10
2019-01-30T09:24:53.364Z,0.20
2019-01-30T09:27:56.350Z,0.30
2019-01-30T09:30:58.964Z,0.40
2019-01-30T09:34:01.600Z,0.50
2019-01-30T09:37:04.426Z,0.60
2019-01-30T09:40:07.494Z,0.70
2019-01-30T09:43:10.211Z,0.80
2019-01-30T09:46:12.923Z,0.90
2019-01-30T09:49:15.605Z,1.00
2019-01-30T09:52:26.639Z,1.00
2019-01-30T09:55:22.934Z,1.10
2019-01-30T09:58:25.589Z,1.00
2019-01-30T10:01:28.305Z,1.00
2019-01-30T10:04:30.942Z,1.00
2019-01-30T10:07:33.626Z,0.90
2019-01-30T10:10:37.810Z,0.90
2019-01-30T10:13:40.401Z,1.00
2019-01-30T10:16:43.172Z,1.10
2019-01-30T10:19:45.756Z,1.00
2019-01-30T10:22:48.418Z,0.90
2019-01-30T10:25:51.123Z,0.80
2019-01-30T10:28:53.920Z,0.70
2019-01-30T10:31:56.617Z,0.70
2019-01-30T10:34:59.234Z,0.60
2019-01-30T10:38:02.019Z,0.50
2019-01-30T10:41:05.057Z,0.40
2019-01-30T10:44:07.737Z,0.20
2019-01-30T10:47:10.316Z,0.10
2019-01-30T10:50:15.066Z,0.10
2019-01-30T10:53:17.741Z,0.20
2019-01-30T10:56:20.496Z,0.20
2019-01-30T10:59:23.168Z,0.30
2019-01-30T11:02:26.232Z,0.40
2019-01-30T11:05:28.925Z,0.50
2019-01-30T11:08:34.402Z,0.60
2019-01-30T11:11:36.467Z,0.60
2019-01-30T11:14:41.045Z,0.70
2019-01-30T11:17:44.809Z,0.80
2019-01-30T11:20:48.254Z,0.90
2019-01-30T11:23:53.881Z,1.00
2019-01-30T11:26:56.936Z,1.20
2019-01-30T11:29:59.905Z,1.30
2019-01-30T11:33:03.507Z,1.50
2019-01-30T11:36:06.198Z,1.60
2019-01-30T11:39:09.783Z,1.80
2019-01-30T11:42:12.551Z,2.00
2019-01-30T11:45:20.594Z,2.20
2019-01-30T11:48:23.271Z,2.30
2019-01-30T11:51:26.185Z,2.10
2019-01-30T11:54:38.634Z,2.00
2019-01-30T11:57:43.678Z,2.00
2019-01-30T12:00:56.259Z,2.10
2019-01-30T12:03:59.503Z,2.40
2019-01-30T12:07:03.315Z,2.60
2019-01-30T12:10:06.795Z,2.80
2019-01-30T12:13:09.571Z,3.10
2019-01-30T12:16:12.929Z,3.00
2019-01-30T12:19:15.722Z,2.90
2019-01-30T12:22:18.303Z,3.20
2019-01-30T12:25:20.902Z,3.40
2019-01-30T12:28:23.693Z,3.40
2019-01-30T12:31:27.006Z,3.40
2019-01-30T12:34:29.854Z,3.60
2019-01-30T12:37:32.956Z,3.90
2019-01-30T12:40:38.368Z,4.00
2019-01-30T12:43:41.016Z,4.20
2019-01-30T12:46:43.953Z,4.40
2019-01-30T12:49:50.525Z,4.70
2019-01-30T12:52:53.154Z,5.10
2019-01-30T12:55:55.833Z,5.40
2019-01-30T12:58:58.769Z,5.50
2019-01-30T13:02:01.450Z,5.70
2019-01-30T13:05:06.750Z,6.00
2019-01-30T13:08:09.762Z,6.00
2019-01-30T13:11:12.452Z,6.00
2019-01-30T13:14:15.182Z,5.90
2019-01-30T13:17:17.809Z,5.80
2019-01-30T13:20:20.925Z,5.80
2019-01-30T13:23:23.550Z,5.80
2019-01-30T13:26:26.238Z,5.70
2019-01-30T13:29:28.896Z,5.70
2019-01-30T13:32:31.522Z,5.80
2019-01-30T13:35:34.313Z,6.00
2019-01-30T13:38:36.958Z,6.00
2019-01-30T13:41:39.564Z,6.00
2019-01-30T13:44:42.165Z,5.80
2019-01-30T13:47:44.734Z,5.70
2019-01-30T13:50:47.908Z,5.50
2019-01-30T13:53:51.185Z,5.30
2019-01-30T13:56:53.892Z,5.10
2019-01-30T13:59:56.645Z,4.90
2019-01-30T14:02:59.499Z,4.70
2019-01-30T14:06:02.603Z,4.60
2019-01-30T14:09:07.622Z,4.20
2019-01-30T14:12:10.922Z,3.90
2019-01-30T14:15:15.549Z,3.60
2019-01-30T14:18:18.295Z,3.30
2019-01-30T14:21:21.038Z,3.10
2019-01-30T14:24:24.186Z,2.70
2019-01-30T14:27:26.821Z,2.40
2019-01-30T14:30:31.920Z,2.10
2019-01-30T14:33:35.090Z,1.80
2019-01-30T14:36:38.387Z,1.50
2019-01-30T14:39:41.217Z,1.20
2019-01-30T14:42:43.991Z,1.00
2019-01-30T14:45:47.340Z,0.90
2019-01-30T14:48:50.554Z,0.70
2019-01-30T14:51:53.315Z,0.60
2019-01-30T14:54:56.132Z,0.40
2019-01-30T14:57:58.784Z,0.30
2019-01-30T15:01:01.525Z,0.20
2019-01-30T15:04:04.277Z,0.00
2019-01-30T15:07:06.941Z,-0.10
2019-01-30T15:10:11.134Z,-0.30
2019-01-30T15:13:13.895Z,-0.50
2019-01-30T15:16:16.527Z,-0.60
2019-01-30T15:19:19.203Z,-0.80
2019-01-30T15:22:21.967Z,-0.90
2019-01-30T15:25:24.798Z,-1.00
2019-01-30T15:28:27.479Z,-1.10
2019-01-30T15:31:30.084Z,-1.20
2019-01-30T15:34:32.878Z,-1.30
2019-01-30T15:37:35.529Z,-1.40
2019-01-30T15:40:38.113Z,-1.50
2019-01-30T15:43:40.728Z,-1.60
2019-01-30T15:46:43.439Z,-1.70
2019-01-30T15:49:46.222Z,-1.80
2019-01-30T15:52:49.006Z,-1.80
2019-01-30T15:55:51.697Z,-1.90
2019-01-30T15:58:57.154Z,-1.90
2019-01-30T16:01:59.731Z,-1.90
2019-01-30T16:05:02.607Z,-2.00
2019-01-30T16:08:05.677Z,-2.00
2019-01-30T16:11:08.348Z,-2.00
2019-01-30T16:14:12.700Z,-2.00
2019-01-30T16:17:15.254Z,-2.00
2019-01-30T16:20:18.622Z,-2.00
2019-01-30T16:23:21.300Z,-2.10
2019-01-30T16:26:23.977Z,-2.10
2019-01-30T16:29:26.643Z,-2.00
2019-01-30T16:32:29.460Z,-2.10
2019-01-30T16:35:32.194Z,-2.10
2019-01-30T16:38:34.769Z,-2.10
2019-01-30T16:41:37.450Z,-2.20
2019-01-30T16:44:40.125Z,-2.30
2019-01-30T16:47:42.804Z,-2.30
2019-01-30T16:50:45.409Z,-2.30
2019-01-30T16:53:48.119Z,-2.30
2019-01-30T16:56:50.633Z,-2.40
2019-01-30T16:59:53.283Z,-2.30
2019-01-30T17:02:56.059Z,-2.30
2019-01-30T17:06:07.048Z,-2.40
2019-01-30T17:09:06.489Z,-2.40
2019-01-30T17:12:10.309Z,-2.40
2019-01-30T17:15:18.407Z,-2.40
2019-01-30T17:18:21.082Z,-2.40
2019-01-30T17:21:23.988Z,-2.40
2019-01-30T17:24:26.710Z,-2.40
2019-01-30T17:27:29.543Z,-2.40
2019-01-30T17:30:35.887Z,-2.30
2019-01-30T17:33:38.786Z,-2.30
2019-01-30T17:36:41.725Z,-2.30
2019-01-30T17:39:44.530Z,-2.30
2019-01-30T17:42:48.391Z,-2.20
2019-01-30T17:45:51.273Z,-2.20
2019-01-30T17:48:54.107Z,-2.10
2019-01-30T17:51:56.816Z,-2.10
2019-01-30T17:55:00.612Z,-2.00
2019-01-30T17:58:03.725Z,-2.00
2019-01-30T18:01:06.771Z,-2.00
2019-01-30T18:04:09.509Z,-1.90
2019-01-30T18:07:13.536Z,-1.90
2019-01-30T18:10:17.884Z,-1.80
2019-01-30T18:13:20.762Z,-1.80
2019-01-30T18:16:23.637Z,-1.80
2019-01-30T18:19:26.375Z,-1.80
2019-01-30T18:22:29.160Z,-1.80
2019-01-30T18:25:32.088Z,-1.90
2019-01-30T18:28:34.904Z,-1.90
2019-01-30T18:31:37.794Z,-2.00
2019-01-30T18:34:40.681Z,-2.00
2019-01-30T18:37:43.614Z,-2.10
2019-01-30T18:40:46.414Z,-2.10
2019-01-30T18:43:49.185Z,-2.10
2019-01-30T18:46:52.098Z,-2.10
2019-01-30T18:49:55.019Z,-2.20
2019-01-30T18:52:57.978Z,-2.20
2019-01-30T18:56:00.724Z,-2.20
2019-01-30T18:59:03.516Z,-2.20
2019-01-30T19:02:06.258Z,-2.20
2019-01-30T19:05:09.850Z,-2.20
2019-01-30T19:08:12.556Z,-2.20
2019-01-30T19:11:15.509Z,-2.20
2019-01-30T19:14:18.326Z,-2.20
2019-01-30T19:17:21.209Z,-2.20
2019-01-30T19:20:29.126Z,-2.10
2019-01-30T19:23:31.894Z,-2.10
2019-01-30T19:26:34.710Z,-2.10
2019-01-30T19:29:37.446Z,-2.10
2019-01-30T19:32:40.296Z,-2.10
2019-01-30T19:35:43.109Z,-2.10
2019-01-30T19:38:45.799Z,-2.10
2019-01-30T19:41:50.354Z,-2.10
2019-01-30T19:44:53.131Z,-2.10
2019-01-30T19:47:58.677Z,-2.10
2019-01-30T19:51:01.789Z,-2.10
2019-01-30T19:54:04.801Z,-2.20
2019-01-30T19:57:07.634Z,-2.20
2019-01-30T20:00:22.446Z,-2.20
2019-01-30T20:03:31.299Z,-2.20
2019-01-30T20:06:34.543Z,-2.10
2019-01-30T20:09:38.895Z,-2.20
2019-01-30T20:12:41.931Z,-2.10
2019-01-30T20:15:47.548Z,-2.20
2019-01-30T20:18:50.512Z,-2.20
2019-01-30T20:21:53.602Z,-2.20
2019-01-30T20:24:56.708Z,-2.10
2019-01-30T20:28:03.847Z,-2.20
2019-01-30T20:31:06.647Z,-2.20
2019-01-30T20:34:10.577Z,-2.20
2019-01-30T20:37:25.658Z,-2.10
2019-01-30T20:40:23.931Z,-2.20
2019-01-30T20:43:27.745Z,-2.20
2019-01-30T20:46:30.781Z,-2.20
2019-01-30T20:49:33.818Z,-2.30
2019-01-30T20:52:37.255Z,-2.30
2019-01-30T20:55:40.110Z,-2.20
2019-01-30T20:58:43.081Z,-2.20
2019-01-30T21:01:45.956Z,-2.30
2019-01-30T21:04:48.779Z,-2.20
2019-01-30T21:07:51.660Z,-2.20
2019-01-30T21:10:58.062Z,-2.20
2019-01-30T21:14:01.057Z,-2.20
2019-01-30T21:17:04.287Z,-2.20
2019-01-30T21:20:07.596Z,-2.20
2019-01-30T21:23:10.446Z,-2.20
2019-01-30T21:26:13.227Z,-2.10
2019-01-30T21:29:16.096Z,-2.20
2019-01-30T21:32:18.949Z,-2.20
2019-01-30T21:35:21.810Z,-2.10
2019-01-30T21:38:24.909Z,-2.20
2019-01-30T21:41:27.644Z,-2.20
2019-01-30T21:44:30.375Z,-2.20
2019-01-30T21:47:33.171Z,-2.20
2019-01-30T21:50:42.340Z,-2.20
2019-01-30T21:53:44.956Z,-2.30
2019-01-30T21:56:47.580Z,-2.20
2019-01-30T21:59:50.241Z,-2.20
2019-01-30T22:02:52.876Z,-2.10
2019-01-30T22:05:57.449Z,-2.10
2019-01-30T22:09:00.159Z,-2.10
2019-01-30T22:12:03.188Z,-2.10
2019-01-30T22:15:07.485Z,-2.00
2019-01-30T22:18:10.148Z,-2.00
2019-01-30T22:21:12.806Z,-2.00
2019-01-30T22:24:15.480Z,-2.00
2019-01-30T22:27:18.064Z,-2.00
2019-01-30T22:30:23.065Z,-2.00
2019-01-30T22:33:25.693Z,-2.00
2019-01-30T22:36:28.316Z,-2.00
2019-01-30T22:39:31.060Z,-1.90
2019-01-30T22:42:33.797Z,-1.90
2019-01-30T22:45:36.336Z,-1.90
2019-01-30T22:48:39.121Z,-1.90
2019-01-30T22:51:42.014Z,-1.90
2019-01-30T22:54:44.650Z,-1.90
2019-01-30T22:57:50.594Z,-1.80
2019-01-30T23:01:28.758Z,-1.80
2019-01-30T23:04:53.284Z,-1.80
2019-01-30T23:08:00.681Z,-1.80
2019-01-30T23:11:51.377Z,-1.80
2019-01-30T23:15:18.134Z,-1.80
2019-01-30T23:18:47.764Z,-1.80
2019-01-30T23:22:23.169Z,-1.80
2019-01-30T23:25:52.261Z,-1.80
2019-01-30T23:29:37.138Z,-1.80
2019-01-30T23:33:12.732Z,-1.80
2019-01-30T23:36:52.304Z,-1.80
2019-01-30T23:40:54.678Z,-1.80
2019-01-30T23:44:18.664Z,-1.80
2019-01-30T23:47:34.898Z,-1.80
2019-01-30T23:51:17.833Z,-1.80
2019-01-30T23:55:01.179Z,-1.80
2019-01-30T23:58:38.805Z,-1.90
